Time;durP1;ratioP1;P1;durP2;ratioP2;P2;SDS_P1;SDS_P2;PMS_P1;PMS_P2;Temp;Humidity;BMP_temperature;BMP_pressure;BME280_temperature;BME280_humidity;BME280_pressure;Samples;Min_cycle;Max_cycle;Signal;HPM_P1;HPM_P2
2024/01/21 00:00:12;;;;;;;5.75;4.03;;;;;;;0.61;76.55;102309.00;5257300;28;20039;-79
2024/01/21 00:02:44;;;;;;;7.15;4.38;;;;;;;0.61;75.29;102297.84;5252682;28;20048;-78
2024/01/21 00:05:16;;;;;;;6.93;4.18;;;;;;;0.57;77.22;102299.63;5254199;28;20102;-78
2024/01/21 00:07:48;;;;;;;6.22;4.25;;;;;;;0.59;75.15;102300.41;5256490;28;20048;-78
2024/01/21 00:10:20;;;;;;;5.80;3.78;;;;;;;0.62;74.09;102290.06;5257334;28;20474;-78
2024/01/21 00:12:52;;;;;;;6.07;4.07;;;;;;;0.64;72.96;102285.69;5254705;28;20054;-78
2024/01/21 00:15:24;;;;;;;6.35;3.90;;;;;;;0.56;74.82;102277.25;5257901;28;20024;-78
2024/01/21 00:17:55;;;;;;;5.90;4.15;;;;;;;0.54;72.45;102261.00;5255484;28;20082;-77
2024/01/21 00:20:30;;;;;;;5.65;3.63;;;;;;;0.51;73.70;102268.78;5263278;28;20025;-78
2024/01/21 00:23:02;;;;;;;6.80;3.83;;;;;;;0.53;74.43;102266.16;5259889;28;20055;-77
2024/01/21 00:25:35;;;;;;;5.18;3.60;;;;;;;0.47;75.08;102267.16;5261999;28;20033;-78
2024/01/21 00:28:07;;;;;;;6.73;3.90;;;;;;;0.40;76.12;102257.84;5257002;28;20391;-78
2024/01/21 00:30:38;;;;;;;6.20;3.88;;;;;;;0.37;77.31;102256.16;5258586;28;20643;-77
2024/01/21 00:33:10;;;;;;;5.43;3.47;;;;;;;0.34;75.26;102245.06;5253569;28;20042;-78
2024/01/21 00:35:42;;;;;;;5.07;3.60;;;;;;;0.32;75.31;102250.25;5253825;28;20676;-78
2024/01/21 00:38:14;;;;;;;5.55;3.40;;;;;;;0.29;74.40;102232.25;5253887;28;20033;-78
2024/01/21 00:40:46;;;;;;;5.40;3.63;;;;;;;0.31;73.38;102234.81;5269422;28;20527;-77
2024/01/21 00:43:18;;;;;;;6.55;4.05;;;;;;;0.29;74.97;102244.31;5256607;28;20063;-78
2024/01/21 00:45:51;;;;;;;5.22;3.42;;;;;;;0.26;74.02;102241.78;5258678;28;20036;-78
2024/01/21 00:48:23;;;;;;;6.28;3.78;;;;;;;0.24;77.66;102234.09;5249870;28;20037;-77
2024/01/21 00:50:55;;;;;;;6.10;3.80;;;;;;;0.23;75.68;102248.72;5255731;28;20481;-78
2024/01/21 00:53:27;;;;;;;5.95;3.65;;;;;;;0.22;75.48;102251.28;5254834;28;20046;-78
2024/01/21 00:55:59;;;;;;;5.95;3.45;;;;;;;0.20;77.38;102248.75;5255408;28;20036;-78
2024/01/21 00:58:31;;;;;;;5.55;3.63;;;;;;;0.23;76.25;102247.88;5261509;28;20025;-78
2024/01/21 01:01:03;;;;;;;7.15;4.00;;;;;;;0.20;77.15;102238.44;5259144;28;20047;-78
2024/01/21 01:03:35;;;;;;;6.07;3.83;;;;;;;0.16;76.33;102234.25;5254373;28;20717;-78
2024/01/21 01:06:07;;;;;;;7.85;4.93;;;;;;;0.09;75.51;102216.34;5253511;28;20045;-78
2024/01/21 01:08:38;;;;;;;7.70;5.03;;;;;;;0.04;78.43;102210.41;5248823;28;20037;-78
2024/01/21 01:11:10;;;;;;;6.65;4.57;;;;;;;0.07;76.24;102207.78;5247733;28;20031;-78
2024/01/21 01:13:42;;;;;;;5.82;4.18;;;;;;;-0.04;77.70;102202.81;5263287;28;20491;-78
2024/01/21 01:16:14;;;;;;;7.35;4.63;;;;;;;-0.04;78.96;102200.25;5252820;28;20033;-78
2024/01/21 01:18:46;;;;;;;7.80;5.20;;;;;;;-0.05;78.66;102201.13;5260803;28;20047;-78
2024/01/21 01:21:18;;;;;;;9.50;5.70;;;;;;;-0.10;77.42;102192.66;5262117;28;20027;-78
2024/01/21 01:23:50;;;;;;;8.82;4.70;;;;;;;-0.08;78.82;102181.44;5258256;28;20505;-78
2024/01/21 01:26:22;;;;;;;8.18;4.75;;;;;;;-0.11;76.91;102172.94;5262935;28;20108;-78
2024/01/21 01:28:53;;;;;;;8.95;5.50;;;;;;;-0.11;77.71;102162.63;5254892;28;20048;-78
2024/01/21 01:31:25;;;;;;;8.15;5.07;;;;;;;-0.17;78.15;102153.28;5257163;28;20028;-78
2024/01/21 01:33:57;;;;;;;7.28;4.68;;;;;;;-0.18;79.04;102158.47;5257358;28;20049;-78
2024/01/21 01:36:29;;;;;;;7.53;5.05;;;;;;;-0.20;77.27;102152.50;5261901;28;20485;-78
2024/01/21 01:39:01;;;;;;;7.72;5.13;;;;;;;-0.19;78.33;102155.06;5256383;28;20033;-78
2024/01/21 01:41:33;;;;;;;9.63;6.13;;;;;;;-0.21;78.96;102148.22;5261901;28;20721;-78
2024/01/21 01:44:05;;;;;;;10.48;5.85;;;;;;;-0.22;77.12;102137.06;5259126;28;20033;-78
2024/01/21 01:46:37;;;;;;;9.25;5.47;;;;;;;-0.22;78.53;102123.34;5262256;28;20033;-78
2024/01/21 01:49:09;;;;;;;8.50;5.28;;;;;;;-0.29;79.11;102120.88;5256904;28;20029;-78
2024/01/21 01:51:41;;;;;;;8.52;5.60;;;;;;;-0.21;77.72;102109.59;5267050;28;20043;-78
2024/01/21 01:54:16;;;;;;;7.27;5.07;;;;;;;-0.12;76.77;102115.41;5254566;28;20047;-78
2024/01/21 01:56:48;;;;;;;7.60;5.38;;;;;;;-0.14;76.67;102122.31;5254560;28;20033;-78
2024/01/21 01:59:20;;;;;;;7.15;4.55;;;;;;;-0.12;76.96;102122.28;5257444;28;20025;-78
2024/01/21 02:01:52;;;;;;;6.38;4.07;;;;;;;-0.13;75.12;102113.69;5254749;28;20300;-78
2024/01/21 02:04:24;;;;;;;7.07;4.25;;;;;;;-0.12;74.35;102107.66;5251440;28;20037;-78
2024/01/21 02:06:56;;;;;;;6.57;4.03;;;;;;;-0.07;74.97;102105.03;5258267;28;20033;-78
2024/01/21 02:09:28;;;;;;;7.65;3.90;;;;;;;-0.07;74.70;102093.00;5256185;28;20036;-78
2024/01/21 02:12:00;;;;;;;5.60;4.00;;;;;;;-0.11;74.61;102078.47;5255300;28;20048;-78
2024/01/21 02:14:32;;;;;;;6.53;3.90;;;;;;;-0.05;75.32;102092.94;5267102;28;20048;-78
2024/01/21 02:17:04;;;;;;;7.25;4.10;;;;;;;-0.02;74.32;102080.00;5247410;28;20029;-78
2024/01/21 02:19:38;;;;;;;5.70;3.78;;;;;;;-0.01;74.38;102076.53;5253987;28;20032;-78
2024/01/21 02:22:10;;;;;;;5.80;3.85;;;;;;;0.03;76.80;102075.59;5251660;28;20020;-78
2024/01/21 02:24:42;;;;;;;5.15;3.20;;;;;;;0.04;74.39;102072.16;5256024;28;20398;-78
2024/01/21 02:27:14;;;;;;;5.75;3.65;;;;;;;0.09;76.86;102067.75;5262131;28;20028;-78
2024/01/21 02:29:46;;;;;;;6.03;3.80;;;;;;;0.16;72.47;102051.28;5256122;28;20028;-78
2024/01/21 02:32:18;;;;;;;4.50;3.00;;;;;;;0.22;72.08;102051.13;5253884;28;20508;-77
2024/01/21 02:34:50;;;;;;;4.57;2.90;;;;;;;0.30;71.87;102047.53;5262622;28;20039;-77
2024/01/21 02:37:22;;;;;;;5.57;3.42;;;;;;;0.33;73.47;102040.56;5251414;28;20041;-78
2024/01/21 02:39:53;;;;;;;4.93;3.13;;;;;;;0.39;70.65;102032.72;5255275;28;20041;-78
2024/01/21 02:42:26;;;;;;;5.65;3.13;;;;;;;0.40;70.64;102018.09;5257768;28;20028;-77
2024/01/21 02:44:58;;;;;;;4.72;3.03;;;;;;;0.47;70.86;102023.06;5263045;28;20044;-77
2024/01/21 02:47:30;;;;;;;4.25;3.20;;;;;;;0.54;70.97;102026.34;5263553;28;20029;-77
2024/01/21 02:50:02;;;;;;;5.45;3.08;;;;;;;0.59;69.88;102029.66;5257248;28;20040;-77
2024/01/21 02:52:33;;;;;;;5.07;2.72;;;;;;;0.63;70.16;102033.84;5259607;28;20047;-77
2024/01/21 02:55:05;;;;;;;4.85;3.13;;;;;;;0.62;67.97;102034.72;5259708;28;20507;-77
2024/01/21 02:57:37;;;;;;;4.90;2.80;;;;;;;0.69;71.48;102033.69;5257835;28;20048;-77
2024/01/21 03:00:10;;;;;;;5.63;3.00;;;;;;;0.72;69.01;102037.94;5261290;28;20051;-77
2024/01/21 03:02:41;;;;;;;4.15;2.85;;;;;;;0.66;70.92;102040.66;5253322;28;20044;-77
2024/01/21 03:05:13;;;;;;;5.05;3.13;;;;;;;0.73;68.26;102029.31;5259429;28;20055;-77
2024/01/21 03:07:45;;;;;;;4.68;2.88;;;;;;;0.78;70.37;102026.63;5255701;28;20473;-77
2024/01/21 03:10:17;;;;;;;5.07;3.30;;;;;;;0.76;69.46;102012.91;5254630;28;20036;-77
2024/01/21 03:12:49;;;;;;;5.25;3.20;;;;;;;0.77;69.38;102001.72;5250656;28;20035;-77
2024/01/21 03:15:21;;;;;;;4.22;2.80;;;;;;;0.71;70.68;101998.38;5256469;28;20033;-77
2024/01/21 03:17:53;;;;;;;7.72;3.22;;;;;;;0.76;70.32;102007.75;5250695;28;20029;-77
2024/01/21 03:20:25;;;;;;;6.35;3.65;;;;;;;0.70;71.06;101996.69;5251892;28;20051;-77
2024/01/21 03:22:57;;;;;;;5.78;3.20;;;;;;;0.74;71.26;102007.78;5253150;28;20055;-77
2024/01/21 03:25:29;;;;;;;5.55;3.13;;;;;;;0.76;71.53;102003.47;5251160;28;20033;-77
2024/01/21 03:28:01;;;;;;;4.95;2.92;;;;;;;0.73;71.88;102006.94;5247640;28;20044;-77
2024/01/21 03:30:32;;;;;;;3.83;2.70;;;;;;;0.71;72.37;102000.97;5250542;28;20066;-77
2024/01/21 03:33:04;;;;;;;4.63;2.92;;;;;;;0.71;72.42;101990.66;5252094;28;20043;-77
2024/01/21 03:35:36;;;;;;;4.55;3.10;;;;;;;0.71;73.80;101990.66;5251708;28;20025;-77
2024/01/21 03:38:08;;;;;;;5.60;3.03;;;;;;;0.76;74.36;101997.41;5248192;28;20062;-77
2024/01/21 03:40:40;;;;;;;4.57;3.13;;;;;;;0.63;75.09;101976.25;5250947;28;20044;-77
2024/01/21 03:43:12;;;;;;;4.47;2.80;;;;;;;0.67;72.82;101983.88;5256400;28;20311;-77
2024/01/21 03:45:44;;;;;;;4.80;2.95;;;;;;;0.71;73.00;101977.75;5252625;28;20040;-77
2024/01/21 03:48:16;;;;;;;5.93;2.80;;;;;;;0.65;72.96;101971.94;5257018;28;20043;-77
2024/01/21 03:50:48;;;;;;;4.97;2.97;;;;;;;0.71;75.10;101985.50;5251634;28;20033;-77
2024/01/21 03:53:20;;;;;;;4.15;2.85;;;;;;;0.80;73.86;101987.00;5258642;28;20070;-77
2024/01/21 03:55:52;;;;;;;4.57;3.03;;;;;;;0.80;74.03;101975.84;5259510;28;20203;-77
2024/01/21 03:58:24;;;;;;;6.22;3.60;;;;;;;0.85;73.38;101953.34;5257224;28;20028;-77
2024/01/21 04:00:56;;;;;;;5.90;3.33;;;;;;;0.84;74.97;101946.50;5258720;28;20453;-77
2024/01/21 04:03:28;;;;;;;5.82;2.70;;;;;;;0.91;72.87;101942.84;5261729;28;20029;-77
2024/01/21 04:06:00;;;;;;;5.57;3.30;;;;;;;0.90;73.54;101936.00;5255410;28;20227;-77
2024/01/21 04:08:32;;;;;;;5.57;2.92;;;;;;;0.91;72.63;101935.09;5254728;28;20036;-77
2024/01/21 04:11:04;;;;;;;5.88;3.08;;;;;;;0.92;73.40;101926.50;5256503;28;20112;-77
2024/01/21 04:13:36;;;;;;;4.25;2.90;;;;;;;0.97;75.02;101937.53;5249274;28;20040;-77
2024/01/21 04:16:07;;;;;;;5.65;3.58;;;;;;;0.90;74.61;101928.25;5255443;28;20040;-77
2024/01/21 04:18:40;;;;;;;4.78;2.92;;;;;;;0.95;73.74;101939.31;5257078;28;20421;-77
2024/01/21 04:21:12;;;;;;;4.88;3.20;;;;;;;0.89;74.81;101936.91;5262777;28;20034;-77
2024/01/21 04:23:44;;;;;;;5.25;3.28;;;;;;;0.92;74.92;101941.97;5254574;28;20482;-77
2024/01/21 04:26:16;;;;;;;5.32;3.05;;;;;;;1.05;75.39;101945.06;5255301;28;20804;-77
2024/01/21 04:28:48;;;;;;;4.60;3.17;;;;;;;1.07;74.92;101941.56;5257349;28;20040;-77
2024/01/21 04:31:20;;;;;;;5.55;3.45;;;;;;;1.10;74.92;101926.00;5256052;28;20032;-77
2024/01/21 04:33:51;;;;;;;5.55;3.20;;;;;;;1.16;75.18;101923.22;5253878;28;20040;-77
2024/01/21 04:36:23;;;;;;;5.38;3.40;;;;;;;1.28;73.45;101918.59;5259663;28;20032;-77
2024/01/21 04:38:55;;;;;;;5.78;3.40;;;;;;;1.35;74.35;101907.22;5250769;28;20047;-77
2024/01/21 04:41:27;;;;;;;4.72;3.47;;;;;;;1.34;75.04;101883.13;5259021;28;20295;-77
2024/01/21 04:43:59;;;;;;;6.70;3.30;;;;;;;1.45;72.71;101869.91;5256419;28;20033;-77
2024/01/21 04:46:31;;;;;;;6.65;3.78;;;;;;;1.48;73.43;101858.63;5258051;28;20063;-77
2024/01/21 04:49:03;;;;;;;4.55;3.30;;;;;;;1.57;72.53;101868.69;5256288;28;20028;-77
2024/01/21 04:51:37;;;;;;;6.32;3.90;;;;;;;1.58;73.00;101850.56;5264119;28;20028;-77
2024/01/21 04:54:09;;;;;;;6.95;4.03;;;;;;;1.60;73.04;101846.19;5259075;28;20040;-77
2024/01/21 04:56:41;;;;;;;5.95;4.13;;;;;;;1.65;72.13;101848.63;5259828;28;20036;-77
2024/01/21 04:59:13;;;;;;;6.10;4.22;;;;;;;1.69;71.15;101848.47;5260219;28;20032;-77
2024/01/21 05:01:48;;;;;;;6.95;4.38;;;;;;;1.70;71.36;101826.06;5258848;28;20036;-77
2024/01/21 05:04:20;;;;;;;7.25;4.32;;;;;;;1.73;72.58;101830.31;5255606;28;20048;-77
2024/01/21 05:06:52;;;;;;;5.80;4.03;;;;;;;1.77;72.00;101831.88;5261613;28;20033;-77
2024/01/21 05:09:24;;;;;;;6.07;4.40;;;;;;;1.87;71.21;101847.06;5265131;28;20024;-77
2024/01/21 05:11:56;;;;;;;6.88;4.50;;;;;;;1.85;71.41;101851.41;5260624;28;20404;-77
2024/01/21 05:14:28;;;;;;;7.25;4.80;;;;;;;1.88;71.11;101838.41;5261318;28;20060;-77
2024/01/21 05:16:59;;;;;;;6.72;4.65;;;;;;;1.94;72.06;101848.53;5265549;28;21004;-78
2024/01/21 05:19:31;;;;;;;6.75;4.40;;;;;;;1.96;72.14;101864.00;5264634;28;20431;-78
2024/01/21 05:22:03;;;;;;;6.95;4.82;;;;;;;2.05;71.89;101863.69;5259224;28;20051;-78
2024/01/21 05:24:38;;;;;;;6.55;4.55;;;;;;;2.05;71.92;101852.53;5264812;28;20048;-78
2024/01/21 05:27:10;;;;;;;7.28;4.43;;;;;;;2.04;72.62;101845.66;5262765;28;20028;-78
2024/01/21 05:29:42;;;;;;;6.50;4.50;;;;;;;2.04;71.97;101836.16;5258805;28;20041;-79
2024/01/21 05:32:14;;;;;;;7.25;4.53;;;;;;;2.07;72.52;101827.47;5262907;28;20052;-78
2024/01/21 05:34:46;;;;;;;7.05;4.80;;;;;;;2.02;72.08;101837.94;5263358;28;20280;-79
2024/01/21 05:37:18;;;;;;;6.47;4.47;;;;;;;2.10;70.72;101833.38;5262925;28;20035;-79
2024/01/21 05:39:50;;;;;;;7.22;4.57;;;;;;;2.10;72.86;101851.47;5262425;28;20020;-79
2024/01/21 05:42:22;;;;;;;7.72;4.90;;;;;;;2.11;72.37;101847.13;5265113;28;20032;-79
2024/01/21 05:44:55;;;;;;;7.60;5.07;;;;;;;2.17;71.36;101827.09;5261260;28;20055;-79
2024/01/21 05:47:26;;;;;;;7.30;4.60;;;;;;;2.17;73.24;101840.03;5266148;28;20032;-78
2024/01/21 05:49:58;;;;;;;7.55;5.38;;;;;;;2.11;72.48;101840.22;5260896;28;20641;-79
2024/01/21 05:52:30;;;;;;;8.05;5.25;;;;;;;2.21;71.37;101834.75;5262190;28;20029;-79
2024/01/21 05:55:05;;;;;;;6.80;4.95;;;;;;;2.26;72.29;101836.28;5261599;28;20035;-79
2024/01/21 05:57:37;;;;;;;6.20;4.63;;;;;;;2.28;72.13;101834.50;5260476;28;20394;-78
2024/01/21 06:00:10;;;;;;;7.38;5.30;;;;;;;2.23;72.86;101832.94;5263068;28;20028;-79
2024/01/21 06:02:42;;;;;;;7.15;5.00;;;;;;;2.22;70.50;101828.69;5262021;28;20031;-78
2024/01/21 06:05:14;;;;;;;5.93;4.80;;;;;;;2.21;73.33;101825.25;5262465;28;20055;-78
2024/01/21 06:07:46;;;;;;;7.03;4.45;;;;;;;2.21;72.93;101822.66;5258631;28;20033;-79
2024/01/21 06:10:18;;;;;;;6.65;4.82;;;;;;;2.18;72.26;101809.84;5264555;28;20029;-79
2024/01/21 06:12:50;;;;;;;6.90;4.75;;;;;;;2.22;71.95;101820.94;5261612;28;20025;-79
2024/01/21 06:15:22;;;;;;;7.85;5.43;;;;;;;2.19;71.85;101816.69;5265808;28;20038;-79
2024/01/21 06:17:54;;;;;;;6.43;4.75;;;;;;;2.23;71.16;101828.63;5263248;28;20048;-79
2024/01/21 06:20:26;;;;;;;7.57;5.20;;;;;;;2.26;71.37;101832.84;5263255;28;20051;-79
2024/01/21 06:22:58;;;;;;;7.57;5.25;;;;;;;2.32;71.82;101833.50;5263214;28;20498;-79
2024/01/21 06:25:30;;;;;;;6.75;5.05;;;;;;;2.26;72.27;101835.44;5262487;28;20032;-78
2024/01/21 06:28:03;;;;;;;7.60;4.82;;;;;;;2.30;72.39;101847.34;5256666;28;20032;-78
2024/01/21 06:30:36;;;;;;;6.82;4.55;;;;;;;2.32;72.28;101822.31;5266413;28;20064;-77
2024/01/21 06:33:09;;;;;;;7.45;4.97;;;;;;;2.37;71.28;101838.50;5257912;28;20517;-77
2024/01/21 06:35:41;;;;;;;6.15;4.65;;;;;;;2.30;72.52;101845.59;5262500;28;20505;-78
2024/01/21 06:38:13;;;;;;;6.47;4.63;;;;;;;2.38;71.42;101845.34;5258388;28;20044;-77
2024/01/21 06:40:44;;;;;;;5.70;4.53;;;;;;;2.38;70.55;101842.75;5260991;28;20043;-77
2024/01/21 06:43:16;;;;;;;5.97;4.57;;;;;;;2.39;69.34;101834.13;5260136;28;20477;-78
2024/01/21 06:45:48;;;;;;;7.10;5.13;;;;;;;2.41;70.23;101837.50;5262302;28;20430;-77
2024/01/21 06:48:20;;;;;;;7.45;4.90;;;;;;;2.46;68.16;101835.56;5259880;28;20074;-78
2024/01/21 06:50:53;;;;;;;6.57;4.68;;;;;;;2.49;68.96;101843.22;5262078;28;20033;-77
2024/01/21 06:53:25;;;;;;;7.13;5.17;;;;;;;2.43;69.37;101848.63;5263464;28;20381;-78
2024/01/21 06:55:56;;;;;;;6.50;4.70;;;;;;;2.52;70.04;101853.47;5270766;28;20299;-78
2024/01/21 06:58:28;;;;;;;7.47;5.00;;;;;;;2.46;69.11;101839.91;5258202;28;20033;-77
2024/01/21 07:01:00;;;;;;;6.25;4.60;;;;;;;2.57;67.71;101861.06;5257694;28;20036;-77
2024/01/21 07:03:32;;;;;;;6.85;4.40;;;;;;;2.61;66.19;101842.81;5263130;28;20037;-77
2024/01/21 07:06:05;;;;;;;6.95;4.53;;;;;;;2.59;66.58;101829.09;5258106;28;20044;-77
2024/01/21 07:08:38;;;;;;;6.72;4.55;;;;;;;2.64;66.20;101816.81;5257169;28;20040;-77
2024/01/21 07:11:10;;;;;;;6.05;4.30;;;;;;;2.65;64.99;101804.72;5260626;28;20025;-77
2024/01/21 07:13:42;;;;;;;6.10;4.22;;;;;;;2.60;64.59;101784.19;5258531;28;20341;-77
2024/01/21 07:16:13;;;;;;;6.63;4.53;;;;;;;2.67;65.13;101798.59;5261301;28;20037;-77
2024/01/21 07:18:45;;;;;;;6.43;4.65;;;;;;;2.67;65.18;101803.78;5262358;28;20036;-77
2024/01/21 07:21:17;;;;;;;6.72;4.68;;;;;;;2.63;66.45;101794.44;5265825;28;20034;-78
2024/01/21 07:23:51;;;;;;;6.22;4.60;;;;;;;2.55;66.31;101788.72;5260636;28;20036;-77
2024/01/21 07:26:23;;;;;;;8.13;4.90;;;;;;;2.63;65.81;101794.44;5255877;28;20516;-77
2024/01/21 07:28:55;;;;;;;6.72;4.47;;;;;;;2.66;65.93;101785.72;5255425;28;20037;-77
2024/01/21 07:31:27;;;;;;;7.30;4.65;;;;;;;2.64;65.46;101785.78;5256686;28;20452;-77
2024/01/21 07:33:59;;;;;;;6.13;4.40;;;;;;;2.57;65.12;101780.88;5255256;28;20174;-77
2024/01/21 07:36:32;;;;;;;5.55;4.00;;;;;;;2.67;65.69;101782.25;5258504;28;20029;-77
2024/01/21 07:39:04;;;;;;;6.57;4.38;;;;;;;2.61;64.95;101785.91;5253469;28;20513;-77
2024/01/21 07:41:36;;;;;;;6.72;4.43;;;;;;;2.67;63.82;101782.25;5257518;28;20051;-77
2024/01/21 07:44:09;;;;;;;6.13;4.63;;;;;;;2.63;65.37;101789.28;5259859;28;20047;-77
2024/01/21 07:46:40;;;;;;;6.63;4.33;;;;;;;2.64;66.16;101809.06;5257654;28;20028;-77
2024/01/21 07:49:12;;;;;;;6.90;4.25;;;;;;;2.62;65.85;101808.28;5260210;28;20496;-77
2024/01/21 07:51:46;;;;;;;8.10;4.28;;;;;;;2.48;64.75;101800.16;5257749;28;20064;-77
2024/01/21 07:54:17;;;;;;;;;;;;;;;2.92;64.90;101826.19;5256655;28;20024;-77
2024/01/21 07:56:49;;;;;;;5.88;4.40;;;;;;;2.61;63.31;101834.19;5255152;28;19920;-77
2024/01/21 07:59:21;;;;;;;6.32;4.00;;;;;;;2.56;64.26;101813.66;5255996;28;20039;-77
2024/01/21 08:01:53;;;;;;;5.88;4.53;;;;;;;2.64;64.09;101841.84;5262416;28;20034;-77
2024/01/21 08:04:25;;;;;;;6.43;4.38;;;;;;;2.64;64.49;101854.78;5261350;28;20041;-77
2024/01/21 08:06:57;;;;;;;6.50;4.30;;;;;;;2.62;64.66;101870.38;5260714;28;20506;-78
2024/01/21 08:09:29;;;;;;;7.22;4.47;;;;;;;2.67;64.40;101878.81;5262264;28;20721;-77
2024/01/21 08:12:01;;;;;;;6.95;3.97;;;;;;;2.62;64.67;101878.13;5260020;28;20021;-78
2024/01/21 08:14:33;;;;;;;6.53;4.10;;;;;;;2.72;64.96;101893.31;5259298;28;20090;-77
2024/01/21 08:17:05;;;;;;;8.55;3.92;;;;;;;2.73;64.19;101892.41;5260368;28;20029;-78
2024/01/21 08:19:38;;;;;;;5.22;3.80;;;;;;;2.81;66.79;101898.19;5257379;28;20039;-78
2024/01/21 08:22:10;;;;;;;5.40;3.75;;;;;;;2.82;65.02;101884.34;5260454;28;20505;-78
2024/01/21 08:24:42;;;;;;;5.53;3.70;;;;;;;2.91;66.21;101902.97;5256344;28;20033;-78
2024/01/21 08:27:14;;;;;;;5.93;4.25;;;;;;;3.00;65.63;101894.03;5260988;28;20033;-78
2024/01/21 08:29:46;;;;;;;6.45;4.05;;;;;;;2.98;66.76;101907.94;5257686;28;20039;-78
2024/01/21 08:32:18;;;;;;;5.50;3.55;;;;;;;3.07;65.06;101892.06;5258675;28;20425;-78
2024/01/21 08:34:50;;;;;;;6.07;4.15;;;;;;;3.09;66.49;101885.94;5261918;28;20035;-78
2024/01/21 08:37:22;;;;;;;5.43;3.95;;;;;;;3.07;66.76;101882.56;5261784;28;20032;-78
2024/01/21 08:39:54;;;;;;;6.78;3.65;;;;;;;3.11;66.94;101875.53;5257690;28;20039;-78
2024/01/21 08:42:27;;;;;;;5.65;3.67;;;;;;;3.14;66.84;101860.72;5258181;28;20253;-78
2024/01/21 08:45:00;;;;;;;5.45;4.13;;;;;;;3.21;67.17;101855.28;5258988;28;20060;-78
2024/01/21 08:47:31;;;;;;;6.00;3.72;;;;;;;3.17;69.41;101865.78;5261852;28;20043;-78
2024/01/21 08:50:04;;;;;;;5.53;3.83;;;;;;;3.25;68.87;101865.47;5259392;28;20028;-78
2024/01/21 08:52:36;;;;;;;5.38;3.85;;;;;;;3.33;70.78;101875.53;5264473;28;20960;-78
2024/01/21 08:55:08;;;;;;;7.45;4.53;;;;;;;3.26;71.57;101871.50;5260078;28;20028;-78
2024/01/21 08:57:41;;;;;;;6.23;4.57;;;;;;;3.47;73.41;101901.78;5260882;28;20036;-78
2024/01/21 09:00:14;;;;;;;4.95;3.83;;;;;;;3.46;74.48;101894.91;5258694;28;20397;-79
2024/01/21 09:02:45;;;;;;;5.43;3.97;;;;;;;3.44;75.96;101890.69;5256384;28;20044;-78
2024/01/21 09:05:17;;;;;;;7.20;4.57;;;;;;;3.37;78.42;101895.25;5264487;28;20452;-78
2024/01/21 09:07:49;;;;;;;6.28;4.22;;;;;;;3.42;78.87;101890.75;5266950;28;20028;-78
2024/01/21 09:10:22;;;;;;;5.97;4.13;;;;;;;3.45;80.82;101900.13;5258943;28;20044;-79
2024/01/21 09:12:54;;;;;;;6.63;4.18;;;;;;;3.47;81.97;101903.53;5259737;28;20035;-78
2024/01/21 09:15:26;;;;;;;7.65;4.68;;;;;;;3.44;83.48;101885.50;5255733;28;20025;-79
2024/01/21 09:17:58;;;;;;;5.20;4.03;;;;;;;3.43;84.20;101879.47;5254501;28;20029;-78
2024/01/21 09:20:30;;;;;;;6.97;4.17;;;;;;;3.55;86.04;101909.25;5259156;28;20028;-79
2024/01/21 09:23:02;;;;;;;5.63;3.92;;;;;;;3.51;87.04;101908.53;5255728;28;20301;-78
2024/01/21 09:25:34;;;;;;;6.82;4.68;;;;;;;3.59;86.87;101923.78;5256463;28;20396;-79
2024/01/21 09:28:06;;;;;;;6.65;4.57;;;;;;;3.50;89.34;101924.13;5259321;28;20028;-79
2024/01/21 09:30:38;;;;;;;5.80;4.05;;;;;;;3.45;89.94;101918.28;5254649;28;20175;-79
2024/01/21 09:33:10;;;;;;;8.57;4.28;;;;;;;3.50;91.12;101914.63;5255186;28;21029;-79
2024/01/21 09:35:42;;;;;;;6.57;4.32;;;;;;;3.36;93.19;101903.94;5258183;28;20086;-80
2024/01/21 09:38:18;;;;;;;5.70;4.45;;;;;;;3.46;95.31;101941.53;5252827;28;20024;-79
2024/01/21 09:41:06;;;;;;;5.72;4.10;;;;;;;3.61;96.53;101938.38;5259708;28;20035;-79
2024/01/21 09:43:42;;;;;;;5.38;4.38;;;;;;;3.51;97.64;101938.78;5263876;28;20035;-79
2024/01/21 09:46:14;;;;;;;4.97;3.97;;;;;;;3.41;98.90;101930.53;5262522;28;20044;-79
2024/01/21 09:48:47;;;;;;;5.43;4.32;;;;;;;3.42;100.00;101925.28;5265528;28;20028;-79
2024/01/21 09:51:20;;;;;;;4.78;4.18;;;;;;;3.50;100.00;101927.56;5266800;28;20043;-79
2024/01/21 09:53:52;;;;;;;;;;;;;;;3.86;100.00;101929.63;5266867;28;20028;-79
2024/01/21 09:56:24;;;;;;;5.60;3.97;;;;;;;3.53;100.00;101924.88;5264951;28;19927;-80
2024/01/21 09:58:57;;;;;;;6.07;4.10;;;;;;;3.54;100.00;101923.97;5265114;28;20068;-79
2024/01/21 10:01:31;;;;;;;6.32;4.45;;;;;;;3.50;100.00;101929.31;5249113;28;20055;-80
2024/01/21 10:04:03;;;;;;;7.82;4.80;;;;;;;3.53;100.00;101934.41;5264448;28;20029;-80
2024/01/21 10:06:36;;;;;;;6.53;4.80;;;;;;;3.57;100.00;101923.84;5263570;28;20052;-80
2024/01/21 10:09:19;;;;;;;6.97;4.65;;;;;;;3.69;100.00;101925.13;5269968;28;20298;-81
2024/01/21 10:11:56;;;;;;;5.95;4.40;;;;;;;3.67;100.00;101929.50;5268339;28;20032;-81
2024/01/21 10:14:28;;;;;;;5.22;4.07;;;;;;;3.62;100.00;101924.50;5268588;28;20049;-81
2024/01/21 10:17:00;;;;;;;6.65;4.43;;;;;;;3.66;100.00;101933.84;5270333;28;20028;-81
2024/01/21 10:19:36;;;;;;;6.75;4.38;;;;;;;3.70;100.00;101929.41;5269881;28;20028;-81
2024/01/21 10:22:09;;;;;;;7.90;4.50;;;;;;;3.75;100.00;101922.31;5269925;28;20033;-79
2024/01/21 10:24:41;;;;;;;;;;;;;;;4.23;100.00;101918.63;5270192;28;20087;-79
2024/01/21 10:27:15;;;;;;;6.05;4.60;;;;;;;3.86;100.00;101917.53;5272384;28;19920;-79
2024/01/21 10:29:47;;;;;;;6.10;4.65;;;;;;;3.83;100.00;101904.69;5262659;28;20032;-81
2024/01/21 10:32:20;;;;;;;6.75;5.00;;;;;;;3.81;100.00;101900.47;5261770;28;20021;-81
2024/01/21 10:34:52;;;;;;;5.55;4.15;;;;;;;3.86;100.00;101898.53;5259291;28;20043;-81
2024/01/21 10:37:27;;;;;;;6.63;4.57;;;;;;;3.91;100.00;101896.63;5260098;28;20021;-81
2024/01/21 10:40:01;;;;;;;6.93;4.85;;;;;;;3.86;100.00;101883.84;5258920;28;20393;-81
2024/01/21 10:42:34;;;;;;;6.00;4.85;;;;;;;3.85;100.00;101874.34;5262342;28;20029;-82
2024/01/21 10:45:08;;;;;;;5.78;4.40;;;;;;;3.98;100.00;101874.72;5259933;28;20032;-81
2024/01/21 10:47:43;;;;;;;5.80;4.60;;;;;;;3.98;100.00;101879.03;5264746;28;20727;-81
2024/01/21 10:50:16;;;;;;;6.40;4.65;;;;;;;4.02;100.00;101878.03;5257517;28;20032;-81
2024/01/21 10:52:50;;;;;;;9.23;4.97;;;;;;;4.03;100.00;101864.16;5259002;28;20033;-81
2024/01/21 10:55:22;;;;;;;7.43;4.45;;;;;;;4.04;100.00;101873.63;5252858;28;20059;-81
2024/01/21 10:57:54;;;;;;;6.45;4.95;;;;;;;4.07;100.00;101874.34;5263050;28;20036;-81
2024/01/21 11:00:27;;;;;;;7.30;5.00;;;;;;;4.25;100.00;101879.69;5258689;28;20067;-79
2024/01/21 11:03:22;;;;;;;6.75;4.85;;;;;;;4.46;100.00;101867.53;5254858;28;20032;-81
2024/01/21 11:06:00;;;;;;;6.30;4.60;;;;;;;4.44;100.00;101856.41;5258704;28;20088;-81
2024/01/21 11:08:32;;;;;;;5.45;4.13;;;;;;;4.41;100.00;101848.75;5269117;28;20024;-82
2024/01/21 11:11:16;;;;;;;8.38;4.97;;;;;;;4.55;100.00;101849.84;5266039;28;20067;-82
2024/01/21 11:13:51;;;;;;;7.13;4.75;;;;;;;4.53;100.00;101846.44;5265805;28;20275;-82
2024/01/21 11:16:25;;;;;;;6.35;4.90;;;;;;;4.68;100.00;101854.47;5265206;28;20036;-82
2024/01/21 11:18:58;;;;;;;6.18;4.28;;;;;;;4.69;100.00;101876.94;5263926;28;20036;-81
2024/01/21 11:21:31;;;;;;;6.25;4.65;;;;;;;4.72;100.00;101887.19;5265091;28;20469;-81
2024/01/21 11:24:14;;;;;;;6.55;4.80;;;;;;;4.83;100.00;101897.94;5265520;28;20036;-81
2024/01/21 11:26:47;;;;;;;7.22;4.95;;;;;;;4.81;100.00;101889.34;5264305;28;20039;-81
2024/01/21 11:29:23;;;;;;;;;;;;;;;5.29;99.87;101891.50;5257858;28;20052;-81
2024/01/21 11:32:00;;;;;;;6.72;4.68;;;;;;;5.01;100.00;101886.75;5261934;28;19916;-82
2024/01/21 11:34:39;;;;;;;6.53;4.85;;;;;;;5.04;100.00;101868.44;5261845;28;20041;-81
2024/01/21 11:37:15;;;;;;;6.82;4.82;;;;;;;5.08;99.32;101882.97;5265252;28;20037;-81
2024/01/21 11:39:49;;;;;;;6.65;4.32;;;;;;;5.10;100.00;101875.94;5260835;28;20029;-81
2024/01/21 11:42:21;;;;;;;5.38;4.47;;;;;;;5.06;100.00;101873.53;5262936;28;20032;-83
2024/01/21 11:45:03;;;;;;;6.35;4.63;;;;;;;5.23;100.00;101876.22;5264467;28;20036;-82
2024/01/21 11:47:35;;;;;;;7.03;5.05;;;;;;;5.01;100.00;101855.59;5264486;28;20504;-82
2024/01/21 11:50:09;;;;;;;6.53;5.13;;;;;;;5.13;100.00;101875.78;5259724;28;20521;-83
2024/01/21 11:52:41;;;;;;;6.18;4.50;;;;;;;5.11;99.89;101889.75;5260006;28;20398;-82
2024/01/21 11:55:20;;;;;;;5.20;4.30;;;;;;;5.31;100.00;101878.47;5262212;28;20591;-82